sensor_id;sensor_type;location;lat;lon;timestamp;P1;durP1;ratioP1;P2;durP2;ratioP2
46090;SDS011;31826;53.572;10.170;2024-02-23T00:02:17;1.00;;;0.80;;
46090;SDS011;31826;53.572;10.170;2024-02-23T00:04:43;0.80;;;0.70;;
46090;SDS011;31826;53.572;10.170;2024-02-23T00:07:10;1.33;;;0.80;;
46090;SDS011;31826;53.572;10.170;2024-02-23T00:09:36;2.95;;;0.90;;
46090;SDS011;31826;53.572;10.170;2024-02-23T00:12:02;2.00;;;0.98;;
46090;SDS011;31826;53.572;10.170;2024-02-23T00:14:28;0.90;;;0.90;;
46090;SDS011;31826;53.572;10.170;2024-02-23T00:16:56;2.28;;;0.98;;
46090;SDS011;31826;53.572;10.170;2024-02-23T00:19:22;1.50;;;0.90;;
46090;SDS011;31826;53.572;10.170;2024-02-23T00:21:49;2.50;;;1.20;;
46090;SDS011;31826;53.572;10.170;2024-02-23T00:24:18;2.58;;;1.10;;
46090;SDS011;31826;53.572;10.170;2024-02-23T00:26:48;3.50;;;1.10;;
46090;SDS011;31826;53.572;10.170;2024-02-23T00:29:13;2.38;;;1.00;;
46090;SDS011;31826;53.572;10.170;2024-02-23T00:31:40;2.43;;;1.00;;
46090;SDS011;31826;53.572;10.170;2024-02-23T00:34:06;1.80;;;0.80;;
46090;SDS011;31826;53.572;10.170;2024-02-23T00:36:36;0.80;;;0.80;;
46090;SDS011;31826;53.572;10.170;2024-02-23T00:39:06;1.60;;;0.80;;
46090;SDS011;31826;53.572;10.170;2024-02-23T00:41:32;0.85;;;0.80;;
46090;SDS011;31826;53.572;10.170;2024-02-23T00:43:58;1.42;;;0.88;;
46090;SDS011;31826;53.572;10.170;2024-02-23T00:46:24;0.57;;;0.57;;
46090;SDS011;31826;53.572;10.170;2024-02-23T00:48:50;1.90;;;0.70;;
46090;SDS011;31826;53.572;10.170;2024-02-23T00:51:16;0.80;;;0.80;;
46090;SDS011;31826;53.572;10.170;2024-02-23T00:53:41;0.73;;;0.73;;
46090;SDS011;31826;53.572;10.170;2024-02-23T00:56:07;1.38;;;0.85;;
46090;SDS011;31826;53.572;10.170;2024-02-23T00:58:33;2.03;;;0.90;;
46090;SDS011;31826;53.572;10.170;2024-02-23T01:00:59;1.70;;;1.00;;
46090;SDS011;31826;53.572;10.170;2024-02-23T01:03:25;2.90;;;1.20;;
46090;SDS011;31826;53.572;10.170;2024-02-23T01:05:50;1.90;;;1.00;;
46090;SDS011;31826;53.572;10.170;2024-02-23T01:08:17;1.85;;;0.75;;
46090;SDS011;31826;53.572;10.170;2024-02-23T01:10:42;0.60;;;0.60;;
46090;SDS011;31826;53.572;10.170;2024-02-23T01:13:08;0.80;;;0.60;;
46090;SDS011;31826;53.572;10.170;2024-02-23T01:15:34;0.70;;;0.70;;
46090;SDS011;31826;53.572;10.170;2024-02-23T01:18:00;0.70;;;0.70;;
46090;SDS011;31826;53.572;10.170;2024-02-23T01:20:25;1.90;;;0.90;;
46090;SDS011;31826;53.572;10.170;2024-02-23T01:22:51;0.60;;;0.60;;
46090;SDS011;31826;53.572;10.170;2024-02-23T01:25:17;0.67;;;0.67;;
46090;SDS011;31826;53.572;10.170;2024-02-23T01:27:42;0.70;;;0.70;;
46090;SDS011;31826;53.572;10.170;2024-02-23T01:30:11;1.20;;;0.70;;
46090;SDS011;31826;53.572;10.170;2024-02-23T01:32:37;0.95;;;0.70;;
46090;SDS011;31826;53.572;10.170;2024-02-23T01:35:04;1.40;;;0.90;;
46090;SDS011;31826;53.572;10.170;2024-02-23T01:37:31;1.10;;;0.80;;
46090;SDS011;31826;53.572;10.170;2024-02-23T01:39:57;1.10;;;0.80;;
46090;SDS011;31826;53.572;10.170;2024-02-23T01:42:24;0.70;;;0.70;;
46090;SDS011;31826;53.572;10.170;2024-02-23T01:44:51;1.00;;;0.90;;
46090;SDS011;31826;53.572;10.170;2024-02-23T01:47:17;0.90;;;0.90;;
46090;SDS011;31826;53.572;10.170;2024-02-23T01:49:43;1.00;;;0.90;;
46090;SDS011;31826;53.572;10.170;2024-02-23T01:52:12;0.90;;;0.90;;
46090;SDS011;31826;53.572;10.170;2024-02-23T01:54:40;2.45;;;1.00;;
46090;SDS011;31826;53.572;10.170;2024-02-23T01:57:05;3.20;;;1.08;;
46090;SDS011;31826;53.572;10.170;2024-02-23T01:59:33;0.80;;;0.80;;
46090;SDS011;31826;53.572;10.170;2024-02-23T02:02:02;1.10;;;1.00;;
46090;SDS011;31826;53.572;10.170;2024-02-23T02:04:28;1.57;;;0.97;;
46090;SDS011;31826;53.572;10.170;2024-02-23T02:06:54;0.80;;;0.80;;
46090;SDS011;31826;53.572;10.170;2024-02-23T02:09:21;0.73;;;0.73;;
46090;SDS011;31826;53.572;10.170;2024-02-23T02:11:47;0.60;;;0.60;;
46090;SDS011;31826;53.572;10.170;2024-02-23T02:14:14;0.95;;;0.75;;
46090;SDS011;31826;53.572;10.170;2024-02-23T02:16:40;1.00;;;0.60;;
46090;SDS011;31826;53.572;10.170;2024-02-23T02:19:06;0.60;;;0.60;;
46090;SDS011;31826;53.572;10.170;2024-02-23T02:21:32;0.68;;;0.68;;
46090;SDS011;31826;53.572;10.170;2024-02-23T02:23:58;0.60;;;0.60;;
46090;SDS011;31826;53.572;10.170;2024-02-23T02:26:24;0.55;;;0.55;;
46090;SDS011;31826;53.572;10.170;2024-02-23T02:28:50;0.68;;;0.68;;
46090;SDS011;31826;53.572;10.170;2024-02-23T02:31:17;0.70;;;0.70;;
46090;SDS011;31826;53.572;10.170;2024-02-23T02:33:43;0.40;;;0.40;;
46090;SDS011;31826;53.572;10.170;2024-02-23T02:36:09;0.50;;;0.50;;
46090;SDS011;31826;53.572;10.170;2024-02-23T02:38:35;0.40;;;0.40;;
46090;SDS011;31826;53.572;10.170;2024-02-23T02:41:01;0.50;;;0.50;;
46090;SDS011;31826;53.572;10.170;2024-02-23T02:43:27;0.50;;;0.50;;
46090;SDS011;31826;53.572;10.170;2024-02-23T02:45:53;0.50;;;0.50;;
46090;SDS011;31826;53.572;10.170;2024-02-23T02:48:18;0.60;;;0.60;;
46090;SDS011;31826;53.572;10.170;2024-02-23T02:50:44;4.80;;;0.60;;
46090;SDS011;31826;53.572;10.170;2024-02-23T02:53:10;0.50;;;0.50;;
46090;SDS011;31826;53.572;10.170;2024-02-23T02:55:36;0.50;;;0.50;;
46090;SDS011;31826;53.572;10.170;2024-02-23T02:58:06;0.40;;;0.40;;
46090;SDS011;31826;53.572;10.170;2024-02-23T03:00:32;1.40;;;0.50;;
46090;SDS011;31826;53.572;10.170;2024-02-23T03:02:57;0.73;;;0.50;;
46090;SDS011;31826;53.572;10.170;2024-02-23T03:05:23;0.50;;;0.50;;
46090;SDS011;31826;53.572;10.170;2024-02-23T03:07:49;0.50;;;0.50;;
46090;SDS011;31826;53.572;10.170;2024-02-23T03:10:14;0.50;;;0.50;;
46090;SDS011;31826;53.572;10.170;2024-02-23T03:12:40;0.50;;;0.50;;
46090;SDS011;31826;53.572;10.170;2024-02-23T03:15:06;1.30;;;0.60;;
46090;SDS011;31826;53.572;10.170;2024-02-23T03:17:33;0.50;;;0.50;;
46090;SDS011;31826;53.572;10.170;2024-02-23T03:19:59;0.88;;;0.70;;
46090;SDS011;31826;53.572;10.170;2024-02-23T03:22:25;0.80;;;0.70;;
46090;SDS011;31826;53.572;10.170;2024-02-23T03:24:51;1.80;;;1.15;;
46090;SDS011;31826;53.572;10.170;2024-02-23T03:27:16;1.20;;;0.77;;
46090;SDS011;31826;53.572;10.170;2024-02-23T03:29:42;0.70;;;0.70;;
46090;SDS011;31826;53.572;10.170;2024-02-23T03:32:08;1.70;;;1.17;;
46090;SDS011;31826;53.572;10.170;2024-02-23T03:34:33;1.50;;;1.00;;
46090;SDS011;31826;53.572;10.170;2024-02-23T03:37:00;1.77;;;1.42;;
46090;SDS011;31826;53.572;10.170;2024-02-23T03:39:27;1.00;;;0.90;;
46090;SDS011;31826;53.572;10.170;2024-02-23T03:41:53;1.00;;;0.90;;
46090;SDS011;31826;53.572;10.170;2024-02-23T03:44:19;1.50;;;0.87;;
46090;SDS011;31826;53.572;10.170;2024-02-23T03:46:45;0.80;;;0.80;;
46090;SDS011;31826;53.572;10.170;2024-02-23T03:49:10;1.30;;;0.90;;
46090;SDS011;31826;53.572;10.170;2024-02-23T03:51:37;1.05;;;0.93;;
46090;SDS011;31826;53.572;10.170;2024-02-23T03:54:04;0.90;;;0.90;;
46090;SDS011;31826;53.572;10.170;2024-02-23T03:56:37;0.80;;;0.80;;
46090;SDS011;31826;53.572;10.170;2024-02-23T03:59:06;0.83;;;0.80;;
46090;SDS011;31826;53.572;10.170;2024-02-23T04:01:36;1.67;;;0.80;;
46090;SDS011;31826;53.572;10.170;2024-02-23T04:04:03;2.10;;;0.95;;
46090;SDS011;31826;53.572;10.170;2024-02-23T04:06:29;1.60;;;1.15;;
46090;SDS011;31826;53.572;10.170;2024-02-23T04:08:54;2.50;;;1.00;;
46090;SDS011;31826;53.572;10.170;2024-02-23T04:11:20;1.33;;;0.90;;
46090;SDS011;31826;53.572;10.170;2024-02-23T04:13:46;0.80;;;0.80;;
46090;SDS011;31826;53.572;10.170;2024-02-23T04:16:11;1.70;;;0.90;;
46090;SDS011;31826;53.572;10.170;2024-02-23T04:18:37;0.93;;;0.85;;
46090;SDS011;31826;53.572;10.170;2024-02-23T04:21:03;0.68;;;0.68;;
46090;SDS011;31826;53.572;10.170;2024-02-23T04:23:29;1.15;;;0.85;;
46090;SDS011;31826;53.572;10.170;2024-02-23T04:25:55;1.20;;;0.80;;
46090;SDS011;31826;53.572;10.170;2024-02-23T04:28:20;1.30;;;0.90;;
46090;SDS011;31826;53.572;10.170;2024-02-23T04:30:46;1.75;;;0.90;;
46090;SDS011;31826;53.572;10.170;2024-02-23T04:33:12;2.25;;;1.00;;
46090;SDS011;31826;53.572;10.170;2024-02-23T04:35:37;1.13;;;0.88;;
46090;SDS011;31826;53.572;10.170;2024-02-23T04:38:03;2.80;;;1.00;;
46090;SDS011;31826;53.572;10.170;2024-02-23T04:40:29;1.57;;;0.90;;
46090;SDS011;31826;53.572;10.170;2024-02-23T04:42:55;6.10;;;1.47;;
46090;SDS011;31826;53.572;10.170;2024-02-23T04:45:20;2.70;;;1.00;;
46090;SDS011;31826;53.572;10.170;2024-02-23T04:47:46;5.15;;;1.30;;
46090;SDS011;31826;53.572;10.170;2024-02-23T04:50:13;2.45;;;1.13;;
46090;SDS011;31826;53.572;10.170;2024-02-23T04:52:39;1.95;;;1.10;;
46090;SDS011;31826;53.572;10.170;2024-02-23T04:55:05;2.33;;;1.40;;
46090;SDS011;31826;53.572;10.170;2024-02-23T04:57:31;3.22;;;1.10;;
46090;SDS011;31826;53.572;10.170;2024-02-23T04:59:57;3.83;;;1.10;;
46090;SDS011;31826;53.572;10.170;2024-02-23T05:02:22;5.07;;;1.80;;
46090;SDS011;31826;53.572;10.170;2024-02-23T05:04:48;1.80;;;1.20;;
46090;SDS011;31826;53.572;10.170;2024-02-23T05:07:14;4.80;;;1.70;;
46090;SDS011;31826;53.572;10.170;2024-02-23T05:09:39;3.87;;;1.17;;
46090;SDS011;31826;53.572;10.170;2024-02-23T05:12:06;2.80;;;1.43;;
46090;SDS011;31826;53.572;10.170;2024-02-23T05:14:35;3.42;;;1.00;;
46090;SDS011;31826;53.572;10.170;2024-02-23T05:17:01;3.72;;;1.25;;
46090;SDS011;31826;53.572;10.170;2024-02-23T05:19:26;4.50;;;1.30;;
46090;SDS011;31826;53.572;10.170;2024-02-23T05:21:52;2.58;;;1.20;;
46090;SDS011;31826;53.572;10.170;2024-02-23T05:24:18;2.67;;;1.13;;
46090;SDS011;31826;53.572;10.170;2024-02-23T05:26:43;4.30;;;1.50;;
46090;SDS011;31826;53.572;10.170;2024-02-23T05:29:09;3.87;;;1.40;;
46090;SDS011;31826;53.572;10.170;2024-02-23T05:31:48;3.63;;;1.40;;
46090;SDS011;31826;53.572;10.170;2024-02-23T05:34:17;5.18;;;1.80;;
46090;SDS011;31826;53.572;10.170;2024-02-23T05:36:44;2.53;;;1.30;;
46090;SDS011;31826;53.572;10.170;2024-02-23T05:39:11;2.53;;;1.30;;
46090;SDS011;31826;53.572;10.170;2024-02-23T05:41:38;2.40;;;1.20;;
46090;SDS011;31826;53.572;10.170;2024-02-23T05:44:04;5.18;;;1.48;;
46090;SDS011;31826;53.572;10.170;2024-02-23T05:46:34;4.40;;;1.63;;
46090;SDS011;31826;53.572;10.170;2024-02-23T05:49:00;3.70;;;1.20;;
46090;SDS011;31826;53.572;10.170;2024-02-23T05:51:27;3.85;;;1.50;;
46090;SDS011;31826;53.572;10.170;2024-02-23T05:53:57;3.38;;;1.63;;
46090;SDS011;31826;53.572;10.170;2024-02-23T05:56:23;1.75;;;1.20;;
46090;SDS011;31826;53.572;10.170;2024-02-23T05:58:50;5.72;;;1.65;;
46090;SDS011;31826;53.572;10.170;2024-02-23T06:01:16;4.07;;;1.42;;
46090;SDS011;31826;53.572;10.170;2024-02-23T06:03:43;2.92;;;1.30;;
46090;SDS011;31826;53.572;10.170;2024-02-23T06:06:09;2.20;;;1.38;;
46090;SDS011;31826;53.572;10.170;2024-02-23T06:08:35;2.30;;;1.10;;
46090;SDS011;31826;53.572;10.170;2024-02-23T06:11:01;5.15;;;1.42;;
46090;SDS011;31826;53.572;10.170;2024-02-23T06:13:29;2.40;;;1.05;;
46090;SDS011;31826;53.572;10.170;2024-02-23T06:15:57;2.28;;;1.17;;
46090;SDS011;31826;53.572;10.170;2024-02-23T06:18:23;3.23;;;1.30;;
46090;SDS011;31826;53.572;10.170;2024-02-23T06:20:49;2.40;;;1.20;;
46090;SDS011;31826;53.572;10.170;2024-02-23T06:23:15;2.78;;;1.20;;
46090;SDS011;31826;53.572;10.170;2024-02-23T06:25:42;1.88;;;1.20;;
46090;SDS011;31826;53.572;10.170;2024-02-23T06:28:08;4.43;;;1.30;;
46090;SDS011;31826;53.572;10.170;2024-02-23T06:30:35;2.50;;;1.20;;
46090;SDS011;31826;53.572;10.170;2024-02-23T06:33:01;4.55;;;1.70;;
46090;SDS011;31826;53.572;10.170;2024-02-23T06:35:27;2.13;;;1.23;;
46090;SDS011;31826;53.572;10.170;2024-02-23T06:37:53;3.30;;;1.30;;
46090;SDS011;31826;53.572;10.170;2024-02-23T06:40:19;3.95;;;1.40;;
46090;SDS011;31826;53.572;10.170;2024-02-23T06:42:44;1.90;;;1.20;;
46090;SDS011;31826;53.572;10.170;2024-02-23T06:45:10;3.88;;;1.50;;
46090;SDS011;31826;53.572;10.170;2024-02-23T06:47:36;3.38;;;1.42;;
46090;SDS011;31826;53.572;10.170;2024-02-23T06:50:01;2.92;;;1.60;;
46090;SDS011;31826;53.572;10.170;2024-02-23T06:52:28;2.05;;;1.20;;
46090;SDS011;31826;53.572;10.170;2024-02-23T06:54:54;4.63;;;1.58;;
46090;SDS011;31826;53.572;10.170;2024-02-23T06:57:20;2.53;;;1.40;;
46090;SDS011;31826;53.572;10.170;2024-02-23T06:59:45;6.90;;;2.30;;
46090;SDS011;31826;53.572;10.170;2024-02-23T07:02:11;6.57;;;1.90;;
46090;SDS011;31826;53.572;10.170;2024-02-23T07:04:37;5.53;;;2.00;;
46090;SDS011;31826;53.572;10.170;2024-02-23T07:07:03;3.80;;;1.80;;
46090;SDS011;31826;53.572;10.170;2024-02-23T07:09:32;3.08;;;1.60;;
46090;SDS011;31826;53.572;10.170;2024-02-23T07:11:58;5.30;;;1.88;;
46090;SDS011;31826;53.572;10.170;2024-02-23T07:14:24;5.93;;;2.05;;
46090;SDS011;31826;53.572;10.170;2024-02-23T07:16:50;6.47;;;2.43;;
46090;SDS011;31826;53.572;10.170;2024-02-23T07:19:19;4.45;;;2.30;;
46090;SDS011;31826;53.572;10.170;2024-02-23T07:21:47;3.85;;;1.95;;
46090;SDS011;31826;53.572;10.170;2024-02-23T07:24:13;7.25;;;2.20;;
46090;SDS011;31826;53.572;10.170;2024-02-23T07:26:39;8.65;;;2.47;;
46090;SDS011;31826;53.572;10.170;2024-02-23T07:29:05;5.80;;;2.28;;
46090;SDS011;31826;53.572;10.170;2024-02-23T07:31:32;12.68;;;4.30;;
46090;SDS011;31826;53.572;10.170;2024-02-23T07:33:58;13.52;;;4.50;;
46090;SDS011;31826;53.572;10.170;2024-02-23T07:36:23;13.75;;;3.85;;
46090;SDS011;31826;53.572;10.170;2024-02-23T07:38:49;7.03;;;2.50;;
46090;SDS011;31826;53.572;10.170;2024-02-23T07:41:15;3.75;;;2.10;;
46090;SDS011;31826;53.572;10.170;2024-02-23T07:43:42;4.13;;;1.80;;
46090;SDS011;31826;53.572;10.170;2024-02-23T07:46:08;6.45;;;2.10;;
46090;SDS011;31826;53.572;10.170;2024-02-23T07:48:35;7.32;;;2.00;;
46090;SDS011;31826;53.572;10.170;2024-02-23T07:51:01;3.28;;;1.75;;
46090;SDS011;31826;53.572;10.170;2024-02-23T07:53:28;5.17;;;1.70;;
46090;SDS011;31826;53.572;10.170;2024-02-23T07:55:54;4.00;;;2.05;;
46090;SDS011;31826;53.572;10.170;2024-02-23T07:58:19;3.87;;;1.90;;
46090;SDS011;31826;53.572;10.170;2024-02-23T08:00:46;8.65;;;1.92;;
46090;SDS011;31826;53.572;10.170;2024-02-23T08:03:12;4.23;;;1.40;;
46090;SDS011;31826;53.572;10.170;2024-02-23T08:05:38;5.40;;;1.60;;
46090;SDS011;31826;53.572;10.170;2024-02-23T08:08:04;4.07;;;1.77;;
46090;SDS011;31826;53.572;10.170;2024-02-23T08:10:31;2.95;;;1.70;;
46090;SDS011;31826;53.572;10.170;2024-02-23T08:12:57;2.27;;;1.33;;
46090;SDS011;31826;53.572;10.170;2024-02-23T08:15:24;4.68;;;1.88;;
46090;SDS011;31826;53.572;10.170;2024-02-23T08:17:50;3.63;;;1.40;;
46090;SDS011;31826;53.572;10.170;2024-02-23T08:20:15;6.00;;;1.77;;
46090;SDS011;31826;53.572;10.170;2024-02-23T08:22:41;4.95;;;1.73;;
46090;SDS011;31826;53.572;10.170;2024-02-23T08:25:07;4.22;;;1.60;;
46090;SDS011;31826;53.572;10.170;2024-02-23T08:27:33;3.80;;;1.52;;
46090;SDS011;31826;53.572;10.170;2024-02-23T08:29:59;5.80;;;1.52;;
46090;SDS011;31826;53.572;10.170;2024-02-23T08:32:24;3.85;;;1.30;;
46090;SDS011;31826;53.572;10.170;2024-02-23T08:34:50;2.20;;;1.35;;
46090;SDS011;31826;53.572;10.170;2024-02-23T08:37:18;2.20;;;1.23;;
46090;SDS011;31826;53.572;10.170;2024-02-23T08:39:44;2.00;;;1.23;;
46090;SDS011;31826;53.572;10.170;2024-02-23T08:42:09;4.75;;;1.52;;
46090;SDS011;31826;53.572;10.170;2024-02-23T08:44:35;7.10;;;1.60;;
46090;SDS011;31826;53.572;10.170;2024-02-23T08:47:03;3.10;;;1.42;;
46090;SDS011;31826;53.572;10.170;2024-02-23T08:49:29;4.53;;;1.42;;
46090;SDS011;31826;53.572;10.170;2024-02-23T08:51:54;3.10;;;1.20;;
46090;SDS011;31826;53.572;10.170;2024-02-23T08:54:23;2.85;;;1.15;;
46090;SDS011;31826;53.572;10.170;2024-02-23T08:56:48;4.55;;;1.60;;
46090;SDS011;31826;53.572;10.170;2024-02-23T08:59:14;5.93;;;1.40;;
46090;SDS011;31826;53.572;10.170;2024-02-23T09:01:40;2.17;;;1.52;;
46090;SDS011;31826;53.572;10.170;2024-02-23T09:04:06;3.30;;;1.30;;
46090;SDS011;31826;53.572;10.170;2024-02-23T09:06:31;2.77;;;1.40;;
46090;SDS011;31826;53.572;10.170;2024-02-23T09:08:58;4.43;;;1.38;;
46090;SDS011;31826;53.572;10.170;2024-02-23T09:11:24;7.63;;;1.50;;
46090;SDS011;31826;53.572;10.170;2024-02-23T09:13:49;7.38;;;1.65;;
46090;SDS011;31826;53.572;10.170;2024-02-23T09:16:15;3.78;;;1.65;;
46090;SDS011;31826;53.572;10.170;2024-02-23T09:18:41;4.55;;;1.45;;
46090;SDS011;31826;53.572;10.170;2024-02-23T09:21:06;5.40;;;1.50;;
46090;SDS011;31826;53.572;10.170;2024-02-23T09:23:32;6.97;;;1.50;;
46090;SDS011;31826;53.572;10.170;2024-02-23T09:25:58;3.90;;;1.43;;
46090;SDS011;31826;53.572;10.170;2024-02-23T09:28:24;8.35;;;2.10;;
46090;SDS011;31826;53.572;10.170;2024-02-23T09:30:50;7.68;;;2.15;;
46090;SDS011;31826;53.572;10.170;2024-02-23T09:33:16;7.13;;;2.30;;
46090;SDS011;31826;53.572;10.170;2024-02-23T09:35:41;3.27;;;1.53;;
46090;SDS011;31826;53.572;10.170;2024-02-23T09:38:07;4.03;;;1.40;;
46090;SDS011;31826;53.572;10.170;2024-02-23T09:40:33;3.20;;;1.20;;
46090;SDS011;31826;53.572;10.170;2024-02-23T09:42:58;3.22;;;1.30;;
46090;SDS011;31826;53.572;10.170;2024-02-23T09:45:25;4.70;;;1.85;;
46090;SDS011;31826;53.572;10.170;2024-02-23T09:47:54;4.72;;;1.40;;
46090;SDS011;31826;53.572;10.170;2024-02-23T09:50:22;4.38;;;1.60;;
46090;SDS011;31826;53.572;10.170;2024-02-23T09:52:49;4.72;;;1.50;;
46090;SDS011;31826;53.572;10.170;2024-02-23T09:55:17;4.53;;;1.40;;
46090;SDS011;31826;53.572;10.170;2024-02-23T09:57:47;6.30;;;1.90;;
46090;SDS011;31826;53.572;10.170;2024-02-23T10:00:15;7.50;;;1.73;;
46090;SDS011;31826;53.572;10.170;2024-02-23T10:02:42;8.45;;;1.60;;
46090;SDS011;31826;53.572;10.170;2024-02-23T10:05:10;5.70;;;1.60;;
46090;SDS011;31826;53.572;10.170;2024-02-23T10:07:37;5.20;;;1.50;;
46090;SDS011;31826;53.572;10.170;2024-02-23T10:10:06;5.90;;;1.80;;
46090;SDS011;31826;53.572;10.170;2024-02-23T10:12:33;6.20;;;2.00;;
46090;SDS011;31826;53.572;10.170;2024-02-23T10:15:00;5.35;;;2.08;;
46090;SDS011;31826;53.572;10.170;2024-02-23T10:17:29;4.50;;;2.00;;
46090;SDS011;31826;53.572;10.170;2024-02-23T10:19:58;8.32;;;2.08;;
46090;SDS011;31826;53.572;10.170;2024-02-23T10:22:24;6.40;;;2.25;;
46090;SDS011;31826;53.572;10.170;2024-02-23T10:24:50;3.38;;;1.50;;
46090;SDS011;31826;53.572;10.170;2024-02-23T10:27:17;5.28;;;1.70;;
46090;SDS011;31826;53.572;10.170;2024-02-23T10:29:42;5.57;;;1.80;;
46090;SDS011;31826;53.572;10.170;2024-02-23T10:32:09;5.17;;;1.77;;
46090;SDS011;31826;53.572;10.170;2024-02-23T10:34:41;4.88;;;1.60;;
46090;SDS011;31826;53.572;10.170;2024-02-23T10:37:08;4.55;;;1.50;;
46090;SDS011;31826;53.572;10.170;2024-02-23T10:39:36;3.55;;;1.27;;
46090;SDS011;31826;53.572;10.170;2024-02-23T10:42:05;5.35;;;1.60;;
46090;SDS011;31826;53.572;10.170;2024-02-23T10:44:37;5.65;;;1.27;;
46090;SDS011;31826;53.572;10.170;2024-02-23T10:47:05;5.47;;;1.60;;
46090;SDS011;31826;53.572;10.170;2024-02-23T10:49:32;6.68;;;1.23;;
46090;SDS011;31826;53.572;10.170;2024-02-23T10:51:58;3.33;;;1.10;;
46090;SDS011;31826;53.572;10.170;2024-02-23T10:54:25;3.67;;;1.50;;
46090;SDS011;31826;53.572;10.170;2024-02-23T10:56:51;2.63;;;1.35;;
46090;SDS011;31826;53.572;10.170;2024-02-23T10:59:18;3.80;;;1.27;;
46090;SDS011;31826;53.572;10.170;2024-02-23T11:01:46;5.35;;;1.70;;
46090;SDS011;31826;53.572;10.170;2024-02-23T11:04:15;2.40;;;1.05;;
46090;SDS011;31826;53.572;10.170;2024-02-23T11:06:42;3.47;;;1.20;;
46090;SDS011;31826;53.572;10.170;2024-02-23T11:09:13;2.75;;;1.13;;
46090;SDS011;31826;53.572;10.170;2024-02-23T11:11:39;2.55;;;0.93;;
46090;SDS011;31826;53.572;10.170;2024-02-23T11:14:08;2.35;;;1.02;;
46090;SDS011;31826;53.572;10.170;2024-02-23T11:16:39;3.80;;;1.02;;
46090;SDS011;31826;53.572;10.170;2024-02-23T11:19:07;2.92;;;1.00;;
46090;SDS011;31826;53.572;10.170;2024-02-23T11:21:36;6.18;;;1.45;;
46090;SDS011;31826;53.572;10.170;2024-02-23T11:24:03;6.15;;;1.17;;
46090;SDS011;31826;53.572;10.170;2024-02-23T11:26:29;2.80;;;1.08;;
46090;SDS011;31826;53.572;10.170;2024-02-23T11:28:56;3.73;;;1.40;;
46090;SDS011;31826;53.572;10.170;2024-02-23T11:31:23;5.88;;;1.70;;
46090;SDS011;31826;53.572;10.170;2024-02-23T11:33:56;2.10;;;1.02;;
46090;SDS011;31826;53.572;10.170;2024-02-23T11:38:53;3.65;;;1.20;;
46090;SDS011;31826;53.572;10.170;2024-02-23T11:41:22;6.97;;;1.30;;
46090;SDS011;31826;53.572;10.170;2024-02-23T11:43:49;4.95;;;2.15;;
46090;SDS011;31826;53.572;10.170;2024-02-23T11:46:18;4.85;;;1.50;;
46090;SDS011;31826;53.572;10.170;2024-02-23T11:48:45;3.20;;;1.35;;
46090;SDS011;31826;53.572;10.170;2024-02-23T11:51:15;4.82;;;1.92;;
46090;SDS011;31826;53.572;10.170;2024-02-23T11:53:41;3.25;;;1.20;;
46090;SDS011;31826;53.572;10.170;2024-02-23T11:56:08;3.97;;;1.37;;
46090;SDS011;31826;53.572;10.170;2024-02-23T11:58:35;4.25;;;1.50;;
46090;SDS011;31826;53.572;10.170;2024-02-23T12:01:01;4.50;;;1.50;;
46090;SDS011;31826;53.572;10.170;2024-02-23T12:03:30;6.85;;;1.55;;
46090;SDS011;31826;53.572;10.170;2024-02-23T12:05:59;5.63;;;1.73;;
46090;SDS011;31826;53.572;10.170;2024-02-23T12:08:26;4.95;;;2.00;;
46090;SDS011;31826;53.572;10.170;2024-02-23T12:10:55;5.47;;;2.43;;
46090;SDS011;31826;53.572;10.170;2024-02-23T12:13:22;3.95;;;1.75;;
46090;SDS011;31826;53.572;10.170;2024-02-23T12:15:48;4.15;;;1.65;;
46090;SDS011;31826;53.572;10.170;2024-02-23T12:18:17;2.75;;;1.15;;
46090;SDS011;31826;53.572;10.170;2024-02-23T12:20:46;4.20;;;1.50;;
46090;SDS011;31826;53.572;10.170;2024-02-23T12:23:12;1.55;;;1.10;;
46090;SDS011;31826;53.572;10.170;2024-02-23T12:25:38;3.27;;;1.40;;
46090;SDS011;31826;53.572;10.170;2024-02-23T12:28:04;2.65;;;0.95;;
46090;SDS011;31826;53.572;10.170;2024-02-23T12:30:30;3.83;;;1.00;;
46090;SDS011;31826;53.572;10.170;2024-02-23T12:33:04;4.38;;;1.20;;
46090;SDS011;31826;53.572;10.170;2024-02-23T12:35:32;3.28;;;1.02;;
46090;SDS011;31826;53.572;10.170;2024-02-23T12:38:00;2.05;;;1.13;;
46090;SDS011;31826;53.572;10.170;2024-02-23T12:40:26;3.40;;;1.15;;
46090;SDS011;31826;53.572;10.170;2024-02-23T12:42:53;4.32;;;1.00;;
46090;SDS011;31826;53.572;10.170;2024-02-23T12:45:19;3.20;;;1.20;;
46090;SDS011;31826;53.572;10.170;2024-02-23T12:47:45;2.53;;;1.00;;
46090;SDS011;31826;53.572;10.170;2024-02-23T12:50:10;0.93;;;0.90;;
46090;SDS011;31826;53.572;10.170;2024-02-23T12:52:36;2.20;;;1.00;;
46090;SDS011;31826;53.572;10.170;2024-02-23T12:55:02;2.47;;;1.02;;
46090;SDS011;31826;53.572;10.170;2024-02-23T12:57:28;2.58;;;1.10;;
46090;SDS011;31826;53.572;10.170;2024-02-23T12:59:53;1.95;;;1.23;;
46090;SDS011;31826;53.572;10.170;2024-02-23T13:02:19;1.73;;;1.02;;
46090;SDS011;31826;53.572;10.170;2024-02-23T13:04:45;4.47;;;1.17;;
46090;SDS011;31826;53.572;10.170;2024-02-23T13:07:17;2.20;;;1.10;;
46090;SDS011;31826;53.572;10.170;2024-02-23T13:09:43;2.55;;;1.17;;
46090;SDS011;31826;53.572;10.170;2024-02-23T13:12:09;3.00;;;1.10;;
46090;SDS011;31826;53.572;10.170;2024-02-23T13:14:35;2.58;;;1.00;;
46090;SDS011;31826;53.572;10.170;2024-02-23T13:17:00;1.60;;;0.95;;
46090;SDS011;31826;53.572;10.170;2024-02-23T13:19:26;2.63;;;1.20;;
46090;SDS011;31826;53.572;10.170;2024-02-23T13:21:52;1.40;;;0.90;;
46090;SDS011;31826;53.572;10.170;2024-02-23T13:24:18;1.15;;;1.05;;
46090;SDS011;31826;53.572;10.170;2024-02-23T13:26:44;3.55;;;0.93;;
46090;SDS011;31826;53.572;10.170;2024-02-23T13:29:10;3.70;;;0.90;;
46090;SDS011;31826;53.572;10.170;2024-02-23T13:31:35;2.50;;;1.25;;
46090;SDS011;31826;53.572;10.170;2024-02-23T13:34:03;2.03;;;0.90;;
46090;SDS011;31826;53.572;10.170;2024-02-23T13:36:29;3.17;;;1.07;;
46090;SDS011;31826;53.572;10.170;2024-02-23T13:38:54;0.93;;;0.87;;
46090;SDS011;31826;53.572;10.170;2024-02-23T13:41:20;2.13;;;0.83;;
46090;SDS011;31826;53.572;10.170;2024-02-23T13:43:46;2.37;;;1.00;;
46090;SDS011;31826;53.572;10.170;2024-02-23T13:46:12;4.88;;;0.90;;
46090;SDS011;31826;53.572;10.170;2024-02-23T13:48:37;0.80;;;0.73;;
46090;SDS011;31826;53.572;10.170;2024-02-23T13:51:03;2.95;;;1.10;;
46090;SDS011;31826;53.572;10.170;2024-02-23T13:53:30;2.28;;;0.90;;
46090;SDS011;31826;53.572;10.170;2024-02-23T13:55:56;6.63;;;1.40;;
46090;SDS011;31826;53.572;10.170;2024-02-23T13:58:22;3.83;;;1.20;;
46090;SDS011;31826;53.572;10.170;2024-02-23T14:00:48;1.80;;;1.13;;
46090;SDS011;31826;53.572;10.170;2024-02-23T14:03:15;3.30;;;0.97;;
46090;SDS011;31826;53.572;10.170;2024-02-23T14:05:43;2.30;;;1.13;;
46090;SDS011;31826;53.572;10.170;2024-02-23T14:08:10;1.20;;;0.95;;
46090;SDS011;31826;53.572;10.170;2024-02-23T14:10:36;1.52;;;1.00;;
46090;SDS011;31826;53.572;10.170;2024-02-23T14:13:01;2.40;;;1.20;;
46090;SDS011;31826;53.572;10.170;2024-02-23T14:15:27;3.42;;;1.25;;
46090;SDS011;31826;53.572;10.170;2024-02-23T14:17:53;2.55;;;1.00;;
46090;SDS011;31826;53.572;10.170;2024-02-23T14:20:19;2.45;;;1.00;;
46090;SDS011;31826;53.572;10.170;2024-02-23T14:22:44;4.00;;;1.07;;
46090;SDS011;31826;53.572;10.170;2024-02-23T14:25:10;1.13;;;0.90;;
46090;SDS011;31826;53.572;10.170;2024-02-23T14:27:36;2.60;;;1.37;;
46090;SDS011;31826;53.572;10.170;2024-02-23T14:30:01;7.97;;;2.28;;
46090;SDS011;31826;53.572;10.170;2024-02-23T14:32:27;4.15;;;1.23;;